sensor_id;sensor_type;location;lat;lon;timestamp;P1;durP1;ratioP1;P2;durP2;ratioP2
48034;SDS011;33812;46.480;6.834;2023-02-08T00:03:45;6.38;;;2.45;;
48034;SDS011;33812;46.480;6.834;2023-02-08T00:07:48;7.45;;;2.63;;
48034;SDS011;33812;46.480;6.834;2023-02-08T00:11:51;10.88;;;3.05;;
48034;SDS011;33812;46.480;6.834;2023-02-08T00:15:53;5.40;;;2.63;;
48034;SDS011;33812;46.480;6.834;2023-02-08T00:19:55;8.00;;;3.35;;
48034;SDS011;33812;46.480;6.834;2023-02-08T00:23:57;6.75;;;2.80;;
48034;SDS011;33812;46.480;6.834;2023-02-08T00:28:00;7.13;;;2.95;;
48034;SDS011;33812;46.480;6.834;2023-02-08T00:32:02;6.78;;;2.80;;
48034;SDS011;33812;46.480;6.834;2023-02-08T00:36:05;6.75;;;2.65;;
48034;SDS011;33812;46.480;6.834;2023-02-08T00:40:08;7.60;;;2.97;;
48034;SDS011;33812;46.480;6.834;2023-02-08T00:44:13;6.90;;;2.42;;
48034;SDS011;33812;46.480;6.834;2023-02-08T00:48:15;7.38;;;2.50;;
48034;SDS011;33812;46.480;6.834;2023-02-08T00:52:17;6.55;;;2.92;;
48034;SDS011;33812;46.480;6.834;2023-02-08T00:56:19;8.23;;;2.90;;
48034;SDS011;33812;46.480;6.834;2023-02-08T01:00:22;9.90;;;2.95;;
48034;SDS011;33812;46.480;6.834;2023-02-08T01:04:24;8.55;;;2.90;;
48034;SDS011;33812;46.480;6.834;2023-02-08T01:08:26;5.93;;;2.70;;
48034;SDS011;33812;46.480;6.834;2023-02-08T01:12:28;9.07;;;3.08;;
48034;SDS011;33812;46.480;6.834;2023-02-08T01:16:32;6.05;;;2.75;;
48034;SDS011;33812;46.480;6.834;2023-02-08T01:20:34;6.88;;;2.75;;
48034;SDS011;33812;46.480;6.834;2023-02-08T01:24:37;6.40;;;2.75;;
48034;SDS011;33812;46.480;6.834;2023-02-08T01:28:39;6.78;;;2.58;;
48034;SDS011;33812;46.480;6.834;2023-02-08T01:32:42;6.45;;;2.83;;
48034;SDS011;33812;46.480;6.834;2023-02-08T01:36:44;7.47;;;2.60;;
48034;SDS011;33812;46.480;6.834;2023-02-08T01:40:46;5.38;;;2.40;;
48034;SDS011;33812;46.480;6.834;2023-02-08T01:49:31;3.85;;;2.22;;
48034;SDS011;33812;46.480;6.834;2023-02-08T01:53:36;6.80;;;2.40;;
48034;SDS011;33812;46.480;6.834;2023-02-08T01:57:39;6.82;;;2.58;;
48034;SDS011;33812;46.480;6.834;2023-02-08T02:01:43;6.78;;;2.60;;
48034;SDS011;33812;46.480;6.834;2023-02-08T02:05:51;9.38;;;3.55;;
48034;SDS011;33812;46.480;6.834;2023-02-08T02:09:56;8.82;;;2.92;;
48034;SDS011;33812;46.480;6.834;2023-02-08T02:14:03;5.97;;;2.47;;
48034;SDS011;33812;46.480;6.834;2023-02-08T02:18:06;4.72;;;2.42;;
48034;SDS011;33812;46.480;6.834;2023-02-08T02:22:15;7.60;;;3.13;;
48034;SDS011;33812;46.480;6.834;2023-02-08T02:35:41;6.20;;;2.20;;
48034;SDS011;33812;46.480;6.834;2023-02-08T02:39:49;6.13;;;2.65;;
48034;SDS011;33812;46.480;6.834;2023-02-08T02:43:59;12.57;;;3.75;;
48034;SDS011;33812;46.480;6.834;2023-02-08T02:48:08;4.65;;;2.22;;
48034;SDS011;33812;46.480;6.834;2023-02-08T02:52:15;4.43;;;2.33;;
48034;SDS011;33812;46.480;6.834;2023-02-08T02:56:21;6.55;;;3.03;;
48034;SDS011;33812;46.480;6.834;2023-02-08T03:00:28;7.40;;;3.17;;
48034;SDS011;33812;46.480;6.834;2023-02-08T03:04:49;6.18;;;2.58;;
48034;SDS011;33812;46.480;6.834;2023-02-08T03:09:12;4.97;;;2.42;;
48034;SDS011;33812;46.480;6.834;2023-02-08T03:13:30;11.65;;;2.38;;
48034;SDS011;33812;46.480;6.834;2023-02-08T03:17:42;6.50;;;2.80;;
48034;SDS011;33812;46.480;6.834;2023-02-08T03:21:56;14.40;;;3.80;;
48034;SDS011;33812;46.480;6.834;2023-02-08T03:26:02;6.97;;;2.72;;
48034;SDS011;33812;46.480;6.834;2023-02-08T03:30:11;7.47;;;3.08;;
48034;SDS011;33812;46.480;6.834;2023-02-08T03:34:18;5.20;;;2.38;;
48034;SDS011;33812;46.480;6.834;2023-02-08T03:38:26;6.32;;;2.53;;
48034;SDS011;33812;46.480;6.834;2023-02-08T03:42:32;13.57;;;3.63;;
48034;SDS011;33812;46.480;6.834;2023-02-08T03:46:36;10.57;;;3.08;;
48034;SDS011;33812;46.480;6.834;2023-02-08T03:50:44;6.40;;;3.15;;
48034;SDS011;33812;46.480;6.834;2023-02-08T03:54:51;9.13;;;3.10;;
48034;SDS011;33812;46.480;6.834;2023-02-08T03:58:57;6.75;;;3.03;;
48034;SDS011;33812;46.480;6.834;2023-02-08T04:03:03;6.70;;;3.20;;
48034;SDS011;33812;46.480;6.834;2023-02-08T04:07:09;8.88;;;3.38;;
48034;SDS011;33812;46.480;6.834;2023-02-08T04:11:12;6.78;;;2.90;;
48034;SDS011;33812;46.480;6.834;2023-02-08T04:15:14;6.18;;;2.58;;
48034;SDS011;33812;46.480;6.834;2023-02-08T04:19:16;8.35;;;2.95;;
48034;SDS011;33812;46.480;6.834;2023-02-08T04:23:18;10.57;;;3.30;;
48034;SDS011;33812;46.480;6.834;2023-02-08T04:27:21;8.40;;;2.83;;
48034;SDS011;33812;46.480;6.834;2023-02-08T04:31:22;6.57;;;2.67;;
48034;SDS011;33812;46.480;6.834;2023-02-08T04:35:24;5.88;;;2.58;;
48034;SDS011;33812;46.480;6.834;2023-02-08T04:39:26;7.00;;;3.05;;
48034;SDS011;33812;46.480;6.834;2023-02-08T04:43:29;5.72;;;3.05;;
48034;SDS011;33812;46.480;6.834;2023-02-08T04:47:31;5.70;;;2.70;;
48034;SDS011;33812;46.480;6.834;2023-02-08T04:51:33;4.47;;;1.83;;
48034;SDS011;33812;46.480;6.834;2023-02-08T04:55:34;4.15;;;2.33;;
48034;SDS011;33812;46.480;6.834;2023-02-08T04:59:38;5.75;;;2.58;;
48034;SDS011;33812;46.480;6.834;2023-02-08T05:03:40;6.90;;;3.13;;
48034;SDS011;33812;46.480;6.834;2023-02-08T05:07:41;5.18;;;2.78;;
48034;SDS011;33812;46.480;6.834;2023-02-08T05:11:43;4.00;;;2.35;;
48034;SDS011;33812;46.480;6.834;2023-02-08T05:15:46;7.35;;;3.13;;
48034;SDS011;33812;46.480;6.834;2023-02-08T05:19:48;9.10;;;3.35;;
48034;SDS011;33812;46.480;6.834;2023-02-08T05:23:50;6.30;;;2.97;;
48034;SDS011;33812;46.480;6.834;2023-02-08T05:27:51;9.60;;;3.00;;
48034;SDS011;33812;46.480;6.834;2023-02-08T05:31:55;5.35;;;2.55;;
48034;SDS011;33812;46.480;6.834;2023-02-08T05:35:56;7.57;;;2.75;;
48034;SDS011;33812;46.480;6.834;2023-02-08T05:39:59;10.57;;;3.58;;
48034;SDS011;33812;46.480;6.834;2023-02-08T05:44:07;8.52;;;3.33;;
48034;SDS011;33812;46.480;6.834;2023-02-08T05:48:10;15.70;;;2.70;;
48034;SDS011;33812;46.480;6.834;2023-02-08T05:52:11;11.07;;;2.90;;
48034;SDS011;33812;46.480;6.834;2023-02-08T05:56:13;12.32;;;3.28;;
48034;SDS011;33812;46.480;6.834;2023-02-08T06:00:15;15.50;;;2.53;;
48034;SDS011;33812;46.480;6.834;2023-02-08T06:04:19;9.07;;;3.53;;
48034;SDS011;33812;46.480;6.834;2023-02-08T06:08:21;9.63;;;3.40;;
48034;SDS011;33812;46.480;6.834;2023-02-08T06:12:22;11.30;;;3.20;;
48034;SDS011;33812;46.480;6.834;2023-02-08T06:16:24;11.05;;;3.22;;
48034;SDS011;33812;46.480;6.834;2023-02-08T06:20:27;10.55;;;3.80;;
48034;SDS011;33812;46.480;6.834;2023-02-08T06:24:29;9.13;;;3.25;;
48034;SDS011;33812;46.480;6.834;2023-02-08T06:28:31;8.20;;;3.28;;
48034;SDS011;33812;46.480;6.834;2023-02-08T06:32:32;9.35;;;6.20;;
48034;SDS011;33812;46.480;6.834;2023-02-08T06:36:35;7.03;;;3.08;;
48034;SDS011;33812;46.480;6.834;2023-02-08T06:40:37;2.90;;;2.33;;
48034;SDS011;33812;46.480;6.834;2023-02-08T06:44:39;11.07;;;3.05;;
48034;SDS011;33812;46.480;6.834;2023-02-08T06:48:41;13.15;;;2.60;;
48034;SDS011;33812;46.480;6.834;2023-02-08T06:52:44;5.70;;;2.58;;
48034;SDS011;33812;46.480;6.834;2023-02-08T06:56:46;5.70;;;2.97;;
48034;SDS011;33812;46.480;6.834;2023-02-08T07:00:48;8.35;;;3.65;;
48034;SDS011;33812;46.480;6.834;2023-02-08T07:04:51;9.30;;;3.63;;
48034;SDS011;33812;46.480;6.834;2023-02-08T07:08:54;12.70;;;3.85;;
48034;SDS011;33812;46.480;6.834;2023-02-08T07:12:56;12.48;;;2.50;;
48034;SDS011;33812;46.480;6.834;2023-02-08T07:16:58;6.10;;;2.60;;
48034;SDS011;33812;46.480;6.834;2023-02-08T07:20:59;10.45;;;2.90;;
48034;SDS011;33812;46.480;6.834;2023-02-08T07:25:09;10.65;;;3.05;;
48034;SDS011;33812;46.480;6.834;2023-02-08T07:29:11;9.13;;;2.83;;
48034;SDS011;33812;46.480;6.834;2023-02-08T07:33:14;10.57;;;2.83;;
48034;SDS011;33812;46.480;6.834;2023-02-08T07:37:16;9.90;;;2.78;;
48034;SDS011;33812;46.480;6.834;2023-02-08T07:41:20;8.13;;;2.90;;
48034;SDS011;33812;46.480;6.834;2023-02-08T07:45:30;9.77;;;2.90;;
48034;SDS011;33812;46.480;6.834;2023-02-08T07:49:32;7.07;;;2.30;;
48034;SDS011;33812;46.480;6.834;2023-02-08T07:53:34;7.05;;;2.40;;
48034;SDS011;33812;46.480;6.834;2023-02-08T07:57:38;6.28;;;2.20;;
48034;SDS011;33812;46.480;6.834;2023-02-08T08:01:40;4.60;;;2.33;;
48034;SDS011;33812;46.480;6.834;2023-02-08T08:05:41;5.85;;;2.22;;
48034;SDS011;33812;46.480;6.834;2023-02-08T08:09:50;3.75;;;2.40;;
48034;SDS011;33812;46.480;6.834;2023-02-08T08:14:01;5.13;;;2.75;;
48034;SDS011;33812;46.480;6.834;2023-02-08T08:18:11;6.35;;;2.50;;
48034;SDS011;33812;46.480;6.834;2023-02-08T08:22:17;4.07;;;2.13;;
48034;SDS011;33812;46.480;6.834;2023-02-08T08:30:44;3.72;;;2.08;;
48034;SDS011;33812;46.480;6.834;2023-02-08T08:34:48;5.35;;;2.25;;
48034;SDS011;33812;46.480;6.834;2023-02-08T08:38:51;3.83;;;1.73;;
48034;SDS011;33812;46.480;6.834;2023-02-08T08:42:53;4.22;;;2.05;;
48034;SDS011;33812;46.480;6.834;2023-02-08T08:46:56;5.82;;;2.55;;
48034;SDS011;33812;46.480;6.834;2023-02-08T08:50:59;11.73;;;2.65;;
48034;SDS011;33812;46.480;6.834;2023-02-08T08:55:02;10.40;;;2.25;;
48034;SDS011;33812;46.480;6.834;2023-02-08T08:59:09;3.92;;;2.03;;
48034;SDS011;33812;46.480;6.834;2023-02-08T09:03:18;3.92;;;2.40;;
48034;SDS011;33812;46.480;6.834;2023-02-08T09:07:20;4.00;;;2.00;;
48034;SDS011;33812;46.480;6.834;2023-02-08T09:11:22;10.25;;;3.38;;
48034;SDS011;33812;46.480;6.834;2023-02-08T09:15:25;2.97;;;1.85;;
48034;SDS011;33812;46.480;6.834;2023-02-08T09:19:33;4.60;;;2.33;;
48034;SDS011;33812;46.480;6.834;2023-02-08T09:23:36;6.60;;;2.78;;
48034;SDS011;33812;46.480;6.834;2023-02-08T09:27:39;4.97;;;2.75;;
48034;SDS011;33812;46.480;6.834;2023-02-08T09:31:54;3.83;;;1.92;;
48034;SDS011;33812;46.480;6.834;2023-02-08T09:40:13;5.82;;;3.05;;
48034;SDS011;33812;46.480;6.834;2023-02-08T09:44:23;2.78;;;2.10;;
48034;SDS011;33812;46.480;6.834;2023-02-08T09:52:46;4.70;;;1.95;;
48034;SDS011;33812;46.480;6.834;2023-02-08T09:56:56;3.40;;;2.20;;
48034;SDS011;33812;46.480;6.834;2023-02-08T10:01:01;8.00;;;2.88;;
48034;SDS011;33812;46.480;6.834;2023-02-08T10:05:06;4.05;;;2.38;;
48034;SDS011;33812;46.480;6.834;2023-02-08T10:09:13;6.00;;;2.88;;
48034;SDS011;33812;46.480;6.834;2023-02-08T10:13:36;5.90;;;2.28;;
48034;SDS011;33812;46.480;6.834;2023-02-08T10:18:10;6.88;;;2.83;;
48034;SDS011;33812;46.480;6.834;2023-02-08T10:22:23;8.30;;;2.88;;
48034;SDS011;33812;46.480;6.834;2023-02-08T10:26:36;6.90;;;2.63;;
48034;SDS011;33812;46.480;6.834;2023-02-08T10:35:21;9.25;;;2.65;;
48034;SDS011;33812;46.480;6.834;2023-02-08T10:39:32;4.70;;;2.47;;
48034;SDS011;33812;46.480;6.834;2023-02-08T10:43:50;2.88;;;2.42;;
48034;SDS011;33812;46.480;6.834;2023-02-08T10:47:59;3.63;;;2.40;;
48034;SDS011;33812;46.480;6.834;2023-02-08T10:52:11;8.27;;;3.03;;
48034;SDS011;33812;46.480;6.834;2023-02-08T11:01:02;5.93;;;3.22;;
48034;SDS011;33812;46.480;6.834;2023-02-08T11:09:24;6.65;;;2.50;;
48034;SDS011;33812;46.480;6.834;2023-02-08T11:13:32;13.13;;;4.38;;
48034;SDS011;33812;46.480;6.834;2023-02-08T11:17:44;6.22;;;3.65;;
48034;SDS011;33812;46.480;6.834;2023-02-08T11:21:50;2.78;;;2.47;;
48034;SDS011;33812;46.480;6.834;2023-02-08T11:25:54;9.70;;;3.90;;
48034;SDS011;33812;46.480;6.834;2023-02-08T11:30:22;6.68;;;3.88;;
48034;SDS011;33812;46.480;6.834;2023-02-08T11:34:30;3.63;;;2.22;;
48034;SDS011;33812;46.480;6.834;2023-02-08T11:38:34;5.45;;;2.75;;
48034;SDS011;33812;46.480;6.834;2023-02-08T11:42:49;5.15;;;2.90;;
48034;SDS011;33812;46.480;6.834;2023-02-08T11:46:53;10.50;;;3.60;;
48034;SDS011;33812;46.480;6.834;2023-02-08T11:50:59;8.20;;;3.28;;
48034;SDS011;33812;46.480;6.834;2023-02-08T11:55:18;4.13;;;2.72;;
48034;SDS011;33812;46.480;6.834;2023-02-08T11:59:25;6.82;;;2.83;;
48034;SDS011;33812;46.480;6.834;2023-02-08T12:03:30;3.95;;;2.50;;
48034;SDS011;33812;46.480;6.834;2023-02-08T12:07:48;5.43;;;2.63;;
48034;SDS011;33812;46.480;6.834;2023-02-08T12:12:09;8.00;;;3.55;;
48034;SDS011;33812;46.480;6.834;2023-02-08T12:16:24;3.95;;;3.10;;
48034;SDS011;33812;46.480;6.834;2023-02-08T12:20:36;6.53;;;3.47;;
48034;SDS011;33812;46.480;6.834;2023-02-08T12:24:51;5.72;;;3.20;;
48034;SDS011;33812;46.480;6.834;2023-02-08T12:29:17;6.65;;;3.33;;
48034;SDS011;33812;46.480;6.834;2023-02-08T12:33:35;3.53;;;2.60;;
48034;SDS011;33812;46.480;6.834;2023-02-08T12:37:48;3.17;;;2.50;;
48034;SDS011;33812;46.480;6.834;2023-02-08T12:42:30;3.72;;;2.55;;
48034;SDS011;33812;46.480;6.834;2023-02-08T12:46:49;5.57;;;2.80;;
48034;SDS011;33812;46.480;6.834;2023-02-08T12:50:59;4.00;;;2.53;;
48034;SDS011;33812;46.480;6.834;2023-02-08T12:55:12;3.92;;;2.30;;
48034;SDS011;33812;46.480;6.834;2023-02-08T12:59:43;2.78;;;2.10;;
48034;SDS011;33812;46.480;6.834;2023-02-08T13:03:56;2.83;;;2.35;;
48034;SDS011;33812;46.480;6.834;2023-02-08T13:08:06;6.95;;;3.25;;
48034;SDS011;33812;46.480;6.834;2023-02-08T13:16:32;9.30;;;3.13;;
48034;SDS011;33812;46.480;6.834;2023-02-08T13:20:42;8.70;;;3.75;;
48034;SDS011;33812;46.480;6.834;2023-02-08T13:24:48;6.35;;;3.30;;
48034;SDS011;33812;46.480;6.834;2023-02-08T13:28:57;7.10;;;2.78;;
48034;SDS011;33812;46.480;6.834;2023-02-08T13:33:12;3.60;;;2.25;;
48034;SDS011;33812;46.480;6.834;2023-02-08T13:37:22;4.32;;;2.90;;
48034;SDS011;33812;46.480;6.834;2023-02-08T13:41:28;3.97;;;2.22;;
48034;SDS011;33812;46.480;6.834;2023-02-08T13:45:32;6.78;;;2.42;;
48034;SDS011;33812;46.480;6.834;2023-02-08T13:49:51;14.80;;;4.32;;
48034;SDS011;33812;46.480;6.834;2023-02-08T13:54:10;5.40;;;3.00;;
48034;SDS011;33812;46.480;6.834;2023-02-08T14:03:19;8.85;;;2.60;;
48034;SDS011;33812;46.480;6.834;2023-02-08T14:07:29;4.35;;;2.38;;
48034;SDS011;33812;46.480;6.834;2023-02-08T14:11:43;4.18;;;2.42;;
48034;SDS011;33812;46.480;6.834;2023-02-08T14:15:48;3.20;;;2.30;;
48034;SDS011;33812;46.480;6.834;2023-02-08T14:20:33;6.38;;;2.28;;
48034;SDS011;33812;46.480;6.834;2023-02-08T14:24:44;8.50;;;2.83;;
48034;SDS011;33812;46.480;6.834;2023-02-08T14:28:59;22.33;;;5.00;;
48034;SDS011;33812;46.480;6.834;2023-02-08T14:33:08;11.47;;;3.37;;
48034;SDS011;33812;46.480;6.834;2023-02-08T14:37:34;7.10;;;2.88;;
48034;SDS011;33812;46.480;6.834;2023-02-08T14:41:55;10.13;;;4.07;;
48034;SDS011;33812;46.480;6.834;2023-02-08T14:50:49;6.75;;;2.72;;
48034;SDS011;33812;46.480;6.834;2023-02-08T14:55:01;7.80;;;2.65;;
48034;SDS011;33812;46.480;6.834;2023-02-08T14:59:26;6.50;;;2.85;;
48034;SDS011;33812;46.480;6.834;2023-02-08T15:03:33;7.55;;;2.88;;
48034;SDS011;33812;46.480;6.834;2023-02-08T15:07:36;3.58;;;2.53;;
48034;SDS011;33812;46.480;6.834;2023-02-08T15:11:58;5.18;;;2.60;;
48034;SDS011;33812;46.480;6.834;2023-02-08T15:16:21;9.25;;;2.88;;
48034;SDS011;33812;46.480;6.834;2023-02-08T15:20:31;4.18;;;2.50;;
48034;SDS011;33812;46.480;6.834;2023-02-08T15:37:27;4.93;;;2.67;;
48034;SDS011;33812;46.480;6.834;2023-02-08T15:45:39;10.65;;;4.07;;
48034;SDS011;33812;46.480;6.834;2023-02-08T15:49:45;3.50;;;2.28;;
48034;SDS011;33812;46.480;6.834;2023-02-08T16:03:45;3.97;;;2.63;;
48034;SDS011;33812;46.480;6.834;2023-02-08T16:07:51;3.47;;;2.65;;
48034;SDS011;33812;46.480;6.834;2023-02-08T16:11:54;4.50;;;3.28;;
48034;SDS011;33812;46.480;6.834;2023-02-08T16:16:14;8.25;;;3.00;;
48034;SDS011;33812;46.480;6.834;2023-02-08T16:20:22;14.50;;;2.58;;
48034;SDS011;33812;46.480;6.834;2023-02-08T16:24:30;16.08;;;3.95;;
48034;SDS011;33812;46.480;6.834;2023-02-08T16:28:33;7.78;;;2.88;;
48034;SDS011;33812;46.480;6.834;2023-02-08T16:32:37;6.25;;;3.55;;
48034;SDS011;33812;46.480;6.834;2023-02-08T16:40:45;21.33;;;3.13;;
48034;SDS011;33812;46.480;6.834;2023-02-08T16:49:20;9.85;;;2.95;;
48034;SDS011;33812;46.480;6.834;2023-02-08T16:53:22;8.50;;;3.13;;
48034;SDS011;33812;46.480;6.834;2023-02-08T16:57:36;11.52;;;3.55;;
48034;SDS011;33812;46.480;6.834;2023-02-08T17:01:39;15.30;;;4.28;;
48034;SDS011;33812;46.480;6.834;2023-02-08T17:05:44;12.90;;;3.55;;
48034;SDS011;33812;46.480;6.834;2023-02-08T17:09:47;12.97;;;3.47;;
48034;SDS011;33812;46.480;6.834;2023-02-08T17:13:49;11.95;;;3.88;;
48034;SDS011;33812;46.480;6.834;2023-02-08T17:17:52;7.03;;;2.63;;
48034;SDS011;33812;46.480;6.834;2023-02-08T17:21:56;9.50;;;3.08;;
48034;SDS011;33812;46.480;6.834;2023-02-08T17:25:58;9.82;;;4.03;;
48034;SDS011;33812;46.480;6.834;2023-02-08T17:30:00;8.40;;;3.20;;
48034;SDS011;33812;46.480;6.834;2023-02-08T17:34:01;15.48;;;4.28;;
48034;SDS011;33812;46.480;6.834;2023-02-08T17:38:05;7.50;;;3.63;;
48034;SDS011;33812;46.480;6.834;2023-02-08T17:42:07;9.00;;;4.20;;
48034;SDS011;33812;46.480;6.834;2023-02-08T17:46:12;9.00;;;4.07;;
48034;SDS011;33812;46.480;6.834;2023-02-08T17:50:17;13.70;;;3.50;;
48034;SDS011;33812;46.480;6.834;2023-02-08T17:54:20;5.07;;;3.30;;
48034;SDS011;33812;46.480;6.834;2023-02-08T17:58:22;6.07;;;3.63;;
48034;SDS011;33812;46.480;6.834;2023-02-08T18:02:24;8.20;;;3.30;;
48034;SDS011;33812;46.480;6.834;2023-02-08T18:06:26;16.63;;;4.07;;
48034;SDS011;33812;46.480;6.834;2023-02-08T18:10:29;10.13;;;4.82;;
48034;SDS011;33812;46.480;6.834;2023-02-08T18:14:31;6.63;;;3.95;;
48034;SDS011;33812;46.480;6.834;2023-02-08T18:18:32;9.50;;;5.07;;
48034;SDS011;33812;46.480;6.834;2023-02-08T18:22:34;14.65;;;4.47;;
48034;SDS011;33812;46.480;6.834;2023-02-08T18:26:38;15.98;;;4.03;;
48034;SDS011;33812;46.480;6.834;2023-02-08T18:30:40;9.07;;;3.80;;
48034;SDS011;33812;46.480;6.834;2023-02-08T18:34:42;7.63;;;3.42;;
48034;SDS011;33812;46.480;6.834;2023-02-08T18:38:45;4.93;;;3.10;;
48034;SDS011;33812;46.480;6.834;2023-02-08T18:42:50;9.85;;;3.95;;
48034;SDS011;33812;46.480;6.834;2023-02-08T18:46:52;6.30;;;3.38;;
48034;SDS011;33812;46.480;6.834;2023-02-08T18:50:54;6.20;;;3.58;;
48034;SDS011;33812;46.480;6.834;2023-02-08T18:54:56;11.90;;;4.28;;
48034;SDS011;33812;46.480;6.834;2023-02-08T18:58:59;18.80;;;15.35;;
48034;SDS011;33812;46.480;6.834;2023-02-08T19:03:01;36.53;;;16.55;;
48034;SDS011;33812;46.480;6.834;2023-02-08T19:07:04;16.08;;;10.27;;
48034;SDS011;33812;46.480;6.834;2023-02-08T19:11:11;12.23;;;7.68;;
48034;SDS011;33812;46.480;6.834;2023-02-08T19:15:16;11.43;;;6.47;;
48034;SDS011;33812;46.480;6.834;2023-02-08T19:19:17;15.40;;;5.20;;
48034;SDS011;33812;46.480;6.834;2023-02-08T19:23:19;11.07;;;5.65;;
48034;SDS011;33812;46.480;6.834;2023-02-08T19:27:21;19.15;;;6.53;;
48034;SDS011;33812;46.480;6.834;2023-02-08T19:31:24;35.95;;;7.05;;
48034;SDS011;33812;46.480;6.834;2023-02-08T19:35:27;17.27;;;5.65;;
48034;SDS011;33812;46.480;6.834;2023-02-08T19:39:29;15.27;;;4.57;;
48034;SDS011;33812;46.480;6.834;2023-02-08T19:43:31;11.30;;;4.57;;
48034;SDS011;33812;46.480;6.834;2023-02-08T19:47:35;12.23;;;4.10;;
48034;SDS011;33812;46.480;6.834;2023-02-08T19:51:37;13.93;;;3.75;;
48034;SDS011;33812;46.480;6.834;2023-02-08T19:55:39;17.85;;;5.03;;
48034;SDS011;33812;46.480;6.834;2023-02-08T19:59:41;8.32;;;3.75;;
48034;SDS011;33812;46.480;6.834;2023-02-08T20:03:44;14.23;;;4.32;;
48034;SDS011;33812;46.480;6.834;2023-02-08T20:07:47;19.90;;;3.72;;
48034;SDS011;33812;46.480;6.834;2023-02-08T20:11:49;15.75;;;4.30;;
48034;SDS011;33812;46.480;6.834;2023-02-08T20:15:55;11.88;;;4.60;;
48034;SDS011;33812;46.480;6.834;2023-02-08T20:20:00;15.02;;;4.63;;
48034;SDS011;33812;46.480;6.834;2023-02-08T20:24:01;9.50;;;4.20;;
48034;SDS011;33812;46.480;6.834;2023-02-08T20:28:04;13.77;;;5.13;;
48034;SDS011;33812;46.480;6.834;2023-02-08T20:32:05;7.50;;;4.30;;
48034;SDS011;33812;46.480;6.834;2023-02-08T20:36:10;11.82;;;4.45;;
48034;SDS011;33812;46.480;6.834;2023-02-08T20:40:13;6.38;;;3.72;;
48034;SDS011;33812;46.480;6.834;2023-02-08T20:44:17;13.15;;;4.22;;
48034;SDS011;33812;46.480;6.834;2023-02-08T20:48:19;9.35;;;4.15;;
48034;SDS011;33812;46.480;6.834;2023-02-08T20:52:22;4.72;;;3.67;;
48034;SDS011;33812;46.480;6.834;2023-02-08T20:56:24;11.88;;;4.18;;
48034;SDS011;33812;46.480;6.834;2023-02-08T21:00:27;5.57;;;3.38;;
48034;SDS011;33812;46.480;6.834;2023-02-08T21:04:29;7.60;;;3.70;;
48034;SDS011;33812;46.480;6.834;2023-02-08T21:08:32;9.10;;;3.95;;
48034;SDS011;33812;46.480;6.834;2023-02-08T21:12:34;8.55;;;3.78;;
48034;SDS011;33812;46.480;6.834;2023-02-08T21:16:37;4.80;;;3.40;;
48034;SDS011;33812;46.480;6.834;2023-02-08T21:20:38;6.38;;;3.83;;
48034;SDS011;33812;46.480;6.834;2023-02-08T21:24:42;6.03;;;3.50;;
48034;SDS011;33812;46.480;6.834;2023-02-08T21:28:43;6.35;;;4.38;;
48034;SDS011;33812;46.480;6.834;2023-02-08T21:32:46;5.88;;;4.03;;
48034;SDS011;33812;46.480;6.834;2023-02-08T21:36:48;7.35;;;4.00;;
48034;SDS011;33812;46.480;6.834;2023-02-08T21:40:51;6.40;;;3.72;;
48034;SDS011;33812;46.480;6.834;2023-02-08T21:44:53;5.43;;;4.35;;
48034;SDS011;33812;46.480;6.834;2023-02-08T21:48:56;5.88;;;3.65;;
48034;SDS011;33812;46.480;6.834;2023-02-08T21:53:16;9.43;;;4.00;;
48034;SDS011;33812;46.480;6.834;2023-02-08T21:57:48;6.35;;;3.92;;
48034;SDS011;33812;46.480;6.834;2023-02-08T22:01:49;8.40;;;3.65;;
48034;SDS011;33812;46.480;6.834;2023-02-08T22:05:51;6.15;;;3.53;;
48034;SDS011;33812;46.480;6.834;2023-02-08T22:10:11;13.27;;;4.55;;
48034;SDS011;33812;46.480;6.834;2023-02-08T22:14:15;4.68;;;3.55;;
48034;SDS011;33812;46.480;6.834;2023-02-08T22:18:17;4.72;;;3.50;;
48034;SDS011;33812;46.480;6.834;2023-02-08T22:22:19;7.00;;;3.95;;
48034;SDS011;33812;46.480;6.834;2023-02-08T22:26:20;11.68;;;4.97;;
48034;SDS011;33812;46.480;6.834;2023-02-08T22:30:24;8.38;;;3.92;;
48034;SDS011;33812;46.480;6.834;2023-02-08T22:34:25;7.32;;;3.95;;
48034;SDS011;33812;46.480;6.834;2023-02-08T22:38:28;10.48;;;3.83;;
48034;SDS011;33812;46.480;6.834;2023-02-08T22:42:30;9.02;;;4.30;;
48034;SDS011;33812;46.480;6.834;2023-02-08T22:46:33;9.82;;;4.43;;
48034;SDS011;33812;46.480;6.834;2023-02-08T22:50:35;9.18;;;4.47;;
48034;SDS011;33812;46.480;6.834;2023-02-08T22:54:39;9.18;;;4.57;;
48034;SDS011;33812;46.480;6.834;2023-02-08T22:58:40;8.18;;;3.92;;
48034;SDS011;33812;46.480;6.834;2023-02-08T23:02:44;6.97;;;4.00;;
48034;SDS011;33812;46.480;6.834;2023-02-08T23:06:46;7.07;;;4.18;;
48034;SDS011;33812;46.480;6.834;2023-02-08T23:10:48;8.27;;;3.60;;
48034;SDS011;33812;46.480;6.834;2023-02-08T23:14:59;8.07;;;4.28;;
48034;SDS011;33812;46.480;6.834;2023-02-08T23:19:02;9.02;;;4.38;;
48034;SDS011;33812;46.480;6.834;2023-02-08T23:23:04;7.00;;;3.97;;
48034;SDS011;33812;46.480;6.834;2023-02-08T23:27:06;7.30;;;4.00;;
48034;SDS011;33812;46.480;6.834;2023-02-08T23:31:08;11.73;;;4.07;;
48034;SDS011;33812;46.480;6.834;2023-02-08T23:35:13;6.03;;;3.58;;
48034;SDS011;33812;46.480;6.834;2023-02-08T23:39:14;7.30;;;3.97;;
48034;SDS011;33812;46.480;6.834;2023-02-08T23:43:16;8.98;;;4.75;;
48034;SDS011;33812;46.480;6.834;2023-02-08T23:47:18;10.48;;;4.32;;
48034;SDS011;33812;46.480;6.834;2023-02-08T23:51:22;7.45;;;4.00;;
48034;SDS011;33812;46.480;6.834;2023-02-08T23:55:25;8.07;;;4.32;;
48034;SDS011;33812;46.480;6.834;2023-02-08T23:59:27;8.98;;;4.47;;
